Terminal Aerodrome Forecast
Issued by NWS Shreveport, LA

Home | Current Version | Previous Version | Text Only | Print | Product List | Glossary On
Versions: 1 2 3 4 5 6 7 8 9 10 11 12 13 14 15 16 17 18 19 20 21
000
FTUS44 KSHV 302323
TAFELD
TAF
KELD 302323Z 3100/3124 VRB06KT P6SM VCTS SCT045CB BKN140 BKN250
      TEMPO 3100/3103 VRB15G30KT 2SM -TSRA BR BKN035CB
     FM310300 VRB03KT P6SM SCT045 BKN250
      TEMPO 3110/3113 5SM BR
     FM311500 24006KT P6SM FEW030 SCT250
     FM311900 18006KT P6SM SCT045 SCT250=

USA.gov is the U.S. government's official web portal to all federal, state and local government web resources and services.